Time;durP1;ratioP1;P1;durP2;ratioP2;P2;SDS_P1;SDS_P2;PMS_P1;PMS_P2;Temp;Humidity;BMP_temperature;BMP_pressure;BME280_temperature;BME280_humidity;BME280_pressure;Samples;Min_cycle;Max_cycle;Signal;HPM_P1;HPM_P2
2020/12/09 00:01:45;;;;;;;25.40;17.40;;;;;;;13.96;52.99;99899.88;5003412;27;127416;-58
2020/12/09 00:04:11;;;;;;;24.70;18.95;;;;;;;13.96;52.61;99897.16;5004451;27;99042;-57
2020/12/09 00:06:38;;;;;;;24.73;18.17;;;;;;;13.96;52.66;99894.44;5004567;27;98341;-61
2020/12/09 00:09:16;;;;;;;23.02;17.52;;;;;;;13.92;52.82;99894.25;5004057;27;114585;-58
2020/12/09 00:11:42;;;;;;;24.27;18.30;;;;;;;13.97;52.93;99894.13;5002320;27;98298;-58
2020/12/09 00:14:08;;;;;;;25.17;19.00;;;;;;;13.95;52.89;99899.06;5003426;27;117062;-59
2020/12/09 00:16:35;;;;;;;23.35;18.23;;;;;;;13.94;52.59;99888.50;5004592;27;105209;-58
2020/12/09 00:19:03;;;;;;;23.50;18.25;;;;;;;13.93;52.72;99895.84;5003264;27;108378;-60
2020/12/09 00:21:31;;;;;;;24.48;18.77;;;;;;;13.93;52.80;99887.72;5004027;27;98899;-57
2020/12/09 00:23:57;;;;;;;23.10;17.77;;;;;;;13.94;52.69;99892.03;4985246;27;98967;-59
2020/12/09 00:26:24;;;;;;;24.00;18.08;;;;;;;13.93;52.82;99895.06;5003635;27;107115;-58
2020/12/09 00:28:50;;;;;;;24.20;18.55;;;;;;;13.94;52.30;99894.72;5003479;27;108208;-58
2020/12/09 00:31:17;;;;;;;23.02;17.92;;;;;;;13.93;52.55;99893.13;5003100;27;115875;-58
2020/12/09 00:33:45;;;;;;;23.20;18.58;;;;;;;13.92;52.95;99886.13;5003033;27;116040;-58
2020/12/09 00:36:14;;;;;;;25.08;18.85;;;;;;;13.90;52.57;99887.53;5002993;27;106448;-58
2020/12/09 00:38:40;;;;;;;23.90;18.30;;;;;;;13.92;52.77;99883.41;5001026;27;107987;-58
2020/12/09 00:41:06;;;;;;;24.65;18.17;;;;;;;13.91;52.89;99889.13;5002172;27;126802;-58
2020/12/09 00:43:32;;;;;;;22.45;17.67;;;;;;;13.93;52.93;99879.59;5003158;27;128581;-59
2020/12/09 00:45:58;;;;;;;22.27;17.67;;;;;;;13.92;52.43;99886.13;5002494;27;127666;-59
2020/12/09 00:48:24;;;;;;;25.95;18.77;;;;;;;13.94;52.77;99885.81;4984502;27;117224;-61
2020/12/09 00:50:50;;;;;;;22.65;18.08;;;;;;;13.93;52.75;99882.31;5002565;27;127599;-59
2020/12/09 00:53:19;;;;;;;25.88;18.52;;;;;;;13.93;52.47;99887.72;5002581;27;122148;-57
2020/12/09 00:55:45;;;;;;;24.55;17.70;;;;;;;13.94;52.58;99888.50;5000669;27;125810;-58
2020/12/09 00:58:11;;;;;;;23.65;17.80;;;;;;;13.95;52.67;99888.22;5003444;27;118866;-57
2020/12/09 01:00:37;;;;;;;23.13;18.05;;;;;;;13.94;52.71;99883.91;5002309;27;129055;-59
2020/12/09 01:03:03;;;;;;;23.27;17.65;;;;;;;13.96;52.49;99872.78;5001771;27;98593;-59
2020/12/09 01:05:29;;;;;;;23.33;17.52;;;;;;;13.98;52.64;99882.19;5002882;27;126281;-58
2020/12/09 01:07:55;;;;;;;22.88;17.67;;;;;;;13.94;52.22;99883.91;5003765;27;99358;-59
2020/12/09 01:10:21;;;;;;;22.38;17.15;;;;;;;13.95;52.74;99884.69;5002210;27;128581;-59
2020/12/09 01:12:48;;;;;;;22.80;17.33;;;;;;;13.98;52.53;99876.75;5001602;27;129280;-60
2020/12/09 01:15:14;;;;;;;20.80;17.13;;;;;;;14.04;52.36;99882.09;5003060;27;98294;-59
2020/12/09 01:17:40;;;;;;;22.80;17.38;;;;;;;14.06;52.45;99875.25;5003894;27;99063;-60
2020/12/09 01:20:06;;;;;;;22.30;17.30;;;;;;;14.10;52.46;99875.44;5002802;27;112914;-58
2020/12/09 01:22:33;;;;;;;21.70;16.92;;;;;;;14.14;52.23;99876.44;5003237;27;114174;-58
2020/12/09 01:24:59;;;;;;;20.55;16.25;;;;;;;14.16;52.09;99876.94;5003580;27;97792;-58
2020/12/09 01:27:25;;;;;;;19.75;16.50;;;;;;;14.15;51.96;99873.44;5003470;27;103370;-60
2020/12/09 01:29:52;;;;;;;23.45;17.05;;;;;;;14.15;52.26;99872.63;5001995;27;97970;-58
2020/12/09 01:32:18;;;;;;;22.50;16.55;;;;;;;14.15;52.40;99873.44;5003361;27;98409;-60
2020/12/09 01:34:44;;;;;;;23.08;17.48;;;;;;;14.17;51.93;99875.84;5001877;27;127680;-60
2020/12/09 01:37:12;;;;;;;21.40;16.98;;;;;;;14.17;52.24;99870.41;5002878;27;118093;-59
2020/12/09 01:39:39;;;;;;;21.83;16.73;;;;;;;14.16;52.19;99868.81;5002758;27;98373;-60
2020/12/09 01:42:05;;;;;;;22.05;17.02;;;;;;;14.15;52.03;99878.84;5001494;27;98375;-58
2020/12/09 01:44:34;;;;;;;19.25;16.15;;;;;;;14.15;52.08;99873.44;4984170;27;97979;-60
2020/12/09 01:47:07;;;;;;;20.95;16.70;;;;;;;14.13;52.09;99882.97;5003058;27;117799;-58
2020/12/09 01:49:33;;;;;;;22.60;17.17;;;;;;;14.15;52.32;99880.78;5002792;27;98351;-60
2020/12/09 01:52:02;;;;;;;22.85;18.00;;;;;;;14.14;52.16;99882.66;5005514;27;98458;-58
2020/12/09 01:54:31;;;;;;;21.33;16.85;;;;;;;14.14;51.85;99874.53;5004721;27;97879;-58
2020/12/09 01:57:09;;;;;;;22.98;17.73;;;;;;;14.12;52.05;99871.34;5006374;27;110590;-57
2020/12/09 01:59:36;;;;;;;23.90;17.42;;;;;;;14.13;51.94;99875.63;5005406;27;98202;-58
2020/12/09 02:02:03;;;;;;;24.67;17.55;;;;;;;14.13;51.96;99872.13;4987320;27;98357;-58
2020/12/09 02:04:29;;;;;;;22.35;17.08;;;;;;;14.14;52.20;99877.22;5006001;27;102488;-59
2020/12/09 02:06:55;;;;;;;22.70;17.83;;;;;;;14.13;52.30;99872.13;4987485;27;108997;-58
2020/12/09 02:09:21;;;;;;;23.73;16.90;;;;;;;14.12;52.05;99868.63;5005218;27;128013;-59
2020/12/09 02:11:47;;;;;;;22.45;17.10;;;;;;;14.11;52.21;99867.03;5007133;27;98507;-60
2020/12/09 02:14:13;;;;;;;20.80;16.65;;;;;;;14.12;52.21;99862.41;5005876;27;107307;-60
2020/12/09 02:16:40;;;;;;;20.85;16.55;;;;;;;14.12;52.24;99865.13;5005815;27;117866;-60
2020/12/09 02:19:06;;;;;;;22.77;17.27;;;;;;;14.13;52.14;99862.09;5006921;27;97839;-60
2020/12/09 02:21:35;;;;;;;22.90;17.15;;;;;;;14.10;52.41;99872.72;5005243;27;109377;-59
2020/12/09 02:24:02;;;;;;;23.08;18.08;;;;;;;14.12;52.29;99870.53;5005466;27;117749;-58
2020/12/09 02:26:29;;;;;;;22.75;17.85;;;;;;;14.11;52.22;99872.44;5007222;27;97704;-60
2020/12/09 02:28:55;;;;;;;24.23;17.58;;;;;;;14.13;52.36;99869.41;5004706;27;120724;-59
2020/12/09 02:31:21;;;;;;;20.60;16.75;;;;;;;14.13;52.49;99869.41;5005382;27;99054;-60
2020/12/09 02:33:48;;;;;;;22.90;16.38;;;;;;;14.12;51.86;99870.53;5004929;27;125111;-60
2020/12/09 02:36:14;;;;;;;22.90;16.73;;;;;;;14.12;52.15;99871.34;5006157;27;97705;-60
2020/12/09 02:38:40;;;;;;;22.08;16.98;;;;;;;14.09;52.58;99871.13;5005878;27;98584;-58
2020/12/09 02:41:06;;;;;;;23.20;17.20;;;;;;;14.12;52.35;99876.75;5003641;27;99528;-59
2020/12/09 02:43:32;;;;;;;23.27;17.08;;;;;;;14.11;52.28;99872.44;5005933;27;98558;-58
2020/12/09 02:45:58;;;;;;;21.98;16.17;;;;;;;14.12;52.23;99871.34;5003626;27;97902;-60
2020/12/09 02:48:24;;;;;;;19.50;15.93;;;;;;;14.11;52.18;99871.63;5004503;27;128835;-58
2020/12/09 02:50:50;;;;;;;20.60;16.45;;;;;;;14.10;52.48;99872.72;5004586;27;128509;-58
2020/12/09 02:53:16;;;;;;;20.45;16.38;;;;;;;14.11;52.59;99868.91;5004709;27;126684;-59
2020/12/09 02:55:42;;;;;;;18.75;15.07;;;;;;;14.12;52.32;99873.25;5005741;27;98010;-58
2020/12/09 02:58:08;;;;;;;20.40;16.17;;;;;;;14.12;52.46;99875.94;5004691;27;127630;-59
2020/12/09 03:00:35;;;;;;;20.17;15.82;;;;;;;14.11;52.40;99874.31;5004271;27;129250;-57
2020/12/09 03:03:01;;;;;;;19.85;15.52;;;;;;;14.12;52.35;99868.63;5003876;27;103973;-59
2020/12/09 03:05:27;;;;;;;19.20;15.18;;;;;;;14.12;52.24;99875.94;5006083;27;97647;-60
2020/12/09 03:07:53;;;;;;;20.10;15.40;;;;;;;14.11;52.45;99867.03;5004728;27;104121;-60
2020/12/09 03:10:20;;;;;;;20.77;15.48;;;;;;;14.11;52.29;99868.91;5004529;27;127961;-59
2020/12/09 03:12:46;;;;;;;19.00;14.95;;;;;;;14.13;52.00;99880.25;5005413;27;98456;-58
2020/12/09 03:15:12;;;;;;;18.88;14.70;;;;;;;14.11;52.22;99877.88;5004322;27;116068;-59
2020/12/09 03:17:38;;;;;;;19.38;15.32;;;;;;;14.12;52.09;99881.38;5004139;27;126005;-59
2020/12/09 03:20:04;;;;;;;20.17;15.40;;;;;;;14.13;52.47;99882.97;5004110;27;128747;-57
2020/12/09 03:22:30;;;;;;;17.83;14.27;;;;;;;14.12;52.27;99882.16;5004062;27;128967;-58
2020/12/09 03:24:56;;;;;;;19.55;15.25;;;;;;;14.12;52.45;99876.75;5003080;27;104177;-59
2020/12/09 03:27:22;;;;;;;18.83;14.30;;;;;;;14.16;52.07;99887.78;5002630;27;122056;-58
2020/12/09 03:29:48;;;;;;;17.80;14.52;;;;;;;14.12;52.36;99875.94;5003222;27;98434;-58
2020/12/09 03:32:14;;;;;;;19.13;14.30;;;;;;;14.12;51.94;99884.09;5004221;27;126673;-58
2020/12/09 03:34:40;;;;;;;17.98;14.43;;;;;;;14.12;52.07;99887.59;4985305;27;117892;-59
2020/12/09 03:37:06;;;;;;;17.90;14.00;;;;;;;14.11;52.28;99882.47;5004144;27;123241;-58
2020/12/09 03:39:32;;;;;;;18.13;14.55;;;;;;;14.12;52.19;99895.72;5003126;27;129102;-59
2020/12/09 03:41:58;;;;;;;18.75;14.10;;;;;;;14.13;51.90;99896.53;5002141;27;125474;-58
2020/12/09 03:44:24;;;;;;;16.65;13.98;;;;;;;14.12;52.00;99894.94;5004539;27;118239;-60
2020/12/09 03:46:50;;;;;;;19.55;13.65;;;;;;;14.10;52.37;99903.34;5005096;27;98414;-58
2020/12/09 03:49:17;;;;;;;17.77;14.10;;;;;;;14.14;52.29;99889.97;5004106;27;128759;-58
2020/12/09 03:51:43;;;;;;;16.85;13.23;;;;;;;14.14;51.84;99900.81;5003538;27;127436;-58
2020/12/09 03:54:09;;;;;;;18.20;14.00;;;;;;;14.11;52.01;99899.53;5003489;27;117671;-61
2020/12/09 03:56:35;;;;;;;17.63;13.85;;;;;;;14.11;52.01;99899.53;5002465;27;98443;-58
2020/12/09 03:59:01;;;;;;;19.17;13.55;;;;;;;14.11;52.14;99896.00;5002438;27;98485;-58
2020/12/09 04:01:27;;;;;;;16.35;13.07;;;;;;;14.11;51.82;99893.28;5001081;27;126557;-58
2020/12/09 04:03:53;;;;;;;16.58;13.13;;;;;;;14.09;52.35;99888.19;5004237;27;97842;-58
2020/12/09 04:06:19;;;;;;;17.38;13.38;;;;;;;14.09;51.94;99890.91;5003428;27;126841;-60
2020/12/09 04:08:45;;;;;;;15.63;12.98;;;;;;;14.09;51.91;99871.94;5002838;27;128113;-58
2020/12/09 04:11:11;;;;;;;18.10;13.30;;;;;;;14.08;52.29;99874.97;5003512;27;97953;-58
2020/12/09 04:13:37;;;;;;;16.98;13.07;;;;;;;14.09;51.97;99880.06;5003640;27;112425;-58
2020/12/09 04:16:03;;;;;;;17.05;13.82;;;;;;;14.09;52.27;99877.34;5000533;27;127267;-60
2020/12/09 04:18:29;;;;;;;16.38;13.35;;;;;;;14.09;51.92;99882.78;5003477;27;126979;-60
2020/12/09 04:20:55;;;;;;;17.67;13.23;;;;;;;14.08;52.08;99888.50;5003941;27;97783;-59
2020/12/09 04:23:21;;;;;;;17.60;13.40;;;;;;;14.07;51.99;99876.03;5003668;27;110007;-59
2020/12/09 04:25:47;;;;;;;17.63;13.35;;;;;;;14.05;52.22;99870.94;5002176;27;128047;-58
2020/12/09 04:28:13;;;;;;;18.08;13.80;;;;;;;14.05;52.25;99872.84;5003333;27;127956;-60
2020/12/09 04:30:39;;;;;;;18.38;13.77;;;;;;;14.02;52.13;99881.59;5002922;27;126695;-60
2020/12/09 04:33:05;;;;;;;17.40;13.32;;;;;;;14.02;51.93;99879.66;4968427;27;118053;-59
2020/12/09 04:35:32;;;;;;;17.88;13.48;;;;;;;14.02;52.07;99881.59;5001325;27;123426;-59
2020/12/09 04:37:58;;;;;;;18.90;13.88;;;;;;;14.03;51.97;99894.03;5004084;27;115178;-58
2020/12/09 04:40:27;;;;;;;19.80;14.30;;;;;;;14.00;52.13;99900.88;5003363;27;114552;-60
2020/12/09 04:43:01;;;;;;;17.40;13.20;;;;;;;13.97;52.24;99904.97;5001154;27;118169;-58
2020/12/09 04:45:33;;;;;;;18.50;13.85;;;;;;;13.95;52.22;99903.66;4985421;27;98418;-60
2020/12/09 04:48:07;;;;;;;;;;;;;;;13.90;52.21;99910.00;5003443;27;116561;-59
2020/12/09 04:50:41;;;;;;;19.60;14.75;;;;;;;13.93;52.05;99897.75;5003814;27;98386;-60
2020/12/09 04:53:18;;;;;;;19.05;15.30;;;;;;;13.92;52.20;99896.97;5004046;27;97708;-58
2020/12/09 04:55:51;;;;;;;19.45;14.30;;;;;;;13.94;52.28;99899.34;5002689;27;117863;-57
2020/12/09 04:58:22;;;;;;;18.67;14.73;;;;;;;13.95;52.14;99893.66;5003297;27;98352;-59
2020/12/09 05:00:48;;;;;;;18.17;14.50;;;;;;;13.95;52.04;99903.66;5001038;27;113263;-58
2020/12/09 05:03:19;;;;;;;19.35;15.18;;;;;;;13.93;52.42;99905.88;4968345;27;116624;-58
2020/12/09 05:05:46;;;;;;;20.30;15.00;;;;;;;13.93;52.25;99900.47;5003003;27;98783;-59
2020/12/09 05:08:21;;;;;;;18.70;14.77;;;;;;;13.94;52.15;99912.91;5003597;27;99167;-58
2020/12/09 05:10:50;;;;;;;18.98;14.40;;;;;;;13.92;52.29;99913.22;5001650;27;98184;-59
2020/12/09 05:13:26;;;;;;;19.33;14.52;;;;;;;13.89;52.13;99924.66;5004846;27;97837;-59
2020/12/09 05:15:54;;;;;;;19.13;14.75;;;;;;;13.92;52.25;99926.75;5003851;27;98571;-59
2020/12/09 05:18:35;;;;;;;19.02;15.02;;;;;;;13.90;51.99;99920.03;5003388;27;98379;-59
2020/12/09 05:21:19;;;;;;;18.88;14.82;;;;;;;13.90;51.87;99912.69;5001467;27;99036;-59
2020/12/09 05:23:56;;;;;;;19.08;14.88;;;;;;;13.92;52.08;99918.63;5003254;27;97837;-58
2020/12/09 05:26:30;;;;;;;20.30;14.88;;;;;;;13.91;52.25;99910.78;5002242;27;98039;-57
2020/12/09 05:29:16;;;;;;;20.42;15.13;;;;;;;13.89;52.37;99929.28;5003520;27;98721;-58
2020/12/09 05:31:50;;;;;;;21.98;15.18;;;;;;;13.92;52.20;99932.19;5003147;27;98030;-59
2020/12/09 05:34:21;;;;;;;20.02;14.75;;;;;;;13.93;51.93;99943.81;5003064;27;98031;-59
2020/12/09 05:36:48;;;;;;;19.05;14.23;;;;;;;13.96;52.23;99940.50;5022776;27;98287;-60
2020/12/09 05:39:14;;;;;;;18.73;14.85;;;;;;;13.96;52.14;99945.94;5015192;27;98775;-59
2020/12/09 05:41:40;;;;;;;19.55;14.50;;;;;;;13.96;52.00;99951.34;5002394;27;120984;-59
2020/12/09 05:44:06;;;;;;;19.52;15.20;;;;;;;13.97;52.16;99945.63;5002781;27;110045;-58
2020/12/09 05:46:32;;;;;;;20.08;15.15;;;;;;;13.96;52.07;99944.00;5001699;27;127117;-59
2020/12/09 05:48:58;;;;;;;18.80;14.50;;;;;;;13.94;51.85;99938.09;5008576;27;129285;-59
2020/12/09 05:51:25;;;;;;;19.17;14.27;;;;;;;13.95;52.20;99939.72;5021857;27;127446;-59
2020/12/09 05:53:51;;;;;;;17.17;14.43;;;;;;;13.93;51.96;99941.91;5023014;27;105972;-58
2020/12/09 05:56:21;;;;;;;20.05;15.20;;;;;;;13.96;52.00;99945.94;5022437;27;122964;-58
2020/12/09 05:58:48;;;;;;;18.98;14.50;;;;;;;13.93;52.01;99949.22;5022308;27;98536;-60
2020/12/09 06:01:16;;;;;;;18.77;14.82;;;;;;;13.96;52.22;99952.16;5020903;27;102769;-58
2020/12/09 06:03:50;;;;;;;20.50;15.15;;;;;;;13.94;51.93;99943.50;5023378;27;97804;-57
2020/12/09 06:06:25;;;;;;;19.92;15.00;;;;;;;13.92;52.31;99950.34;5023513;27;98906;-59
2020/12/09 06:08:55;;;;;;;18.90;14.60;;;;;;;13.92;52.09;99948.44;5023035;27;99076;-58
2020/12/09 06:11:34;;;;;;;19.70;14.52;;;;;;;13.90;52.00;99952.53;5022691;27;97989;-57
2020/12/09 06:14:00;;;;;;;19.17;14.50;;;;;;;13.91;51.91;99954.13;5020520;27;117613;-58
2020/12/09 06:16:26;;;;;;;19.50;15.13;;;;;;;13.92;52.02;99953.84;5002432;27;127032;-59
2020/12/09 06:18:54;;;;;;;20.15;14.55;;;;;;;13.93;51.91;99952.75;5021092;27;98277;-58
2020/12/09 06:21:21;;;;;;;21.02;15.57;;;;;;;13.91;51.96;99960.38;5022353;27;116332;-58
2020/12/09 06:23:48;;;;;;;18.63;15.05;;;;;;;13.91;51.75;99959.56;5023018;27;97854;-58
2020/12/09 06:26:15;;;;;;;18.92;14.40;;;;;;;13.91;51.80;99960.38;5001008;27;98962;-59
2020/12/09 06:28:49;;;;;;;19.25;14.52;;;;;;;13.91;51.94;99968.50;5015103;27;98664;-57
2020/12/09 06:31:20;;;;;;;19.58;14.65;;;;;;;13.92;51.70;99975.53;5015174;27;99519;-59
2020/12/09 06:33:53;;;;;;;19.73;14.57;;;;;;;13.90;52.12;99975.00;5022472;27;103220;-58
2020/12/09 06:36:21;;;;;;;21.38;15.65;;;;;;;13.94;51.82;99980.63;5022706;27;99038;-58
2020/12/09 06:39:05;;;;;;;18.73;14.52;;;;;;;13.90;52.17;99983.13;5026587;27;98704;-61
2020/12/09 06:41:47;;;;;;;21.27;15.25;;;;;;;13.90;52.16;99991.25;5015085;27;98259;-58
2020/12/09 06:44:16;;;;;;;20.08;14.95;;;;;;;13.92;51.81;99983.66;5026693;27;97607;-59
2020/12/09 06:46:50;;;;;;;20.63;15.65;;;;;;;13.91;51.98;99989.34;5005994;27;98896;-59
2020/12/09 06:49:28;;;;;;;19.52;14.60;;;;;;;13.89;52.07;99981.53;5019784;27;98578;-59
2020/12/09 06:52:09;;;;;;;21.13;15.43;;;;;;;13.92;51.75;99982.84;5005195;27;97648;-58
2020/12/09 06:54:43;;;;;;;19.00;14.90;;;;;;;13.90;52.09;99983.13;5005801;27;97778;-60
2020/12/09 06:57:38;;;;;;;19.25;15.15;;;;;;;13.89;52.04;99997.78;5005455;27;98935;-57
2020/12/09 07:00:17;;;;;;;19.40;15.80;;;;;;;13.88;52.06;99995.41;5005136;27;99199;-57
2020/12/09 07:02:44;;;;;;;20.92;15.20;;;;;;;13.92;51.75;100001.81;5006798;27;97922;-58
2020/12/09 07:05:12;;;;;;;19.65;15.75;;;;;;;13.91;52.00;99995.59;4987184;27;97695;-59
2020/12/09 07:07:43;;;;;;;22.67;16.67;;;;;;;13.92;52.08;99997.22;5005535;27;98964;-58
2020/12/09 07:10:18;;;;;;;21.60;16.15;;;;;;;13.88;52.01;99988.06;5025043;27;99406;-59
2020/12/09 07:12:46;;;;;;;20.88;16.27;;;;;;;13.92;52.02;99986.38;5025584;27;97937;-58
2020/12/09 07:15:12;;;;;;;21.40;15.85;;;;;;;13.92;51.93;99991.78;5026009;27;98354;-58
2020/12/09 07:17:38;;;;;;;22.65;16.25;;;;;;;13.93;51.86;99992.59;5005819;27;98355;-59
2020/12/09 07:20:04;;;;;;;21.52;16.40;;;;;;;13.94;51.98;99991.47;5003972;27;128343;-58
2020/12/09 07:22:30;;;;;;;21.70;16.80;;;;;;;13.94;51.51;99992.28;5003644;27;97988;-57
2020/12/09 07:24:56;;;;;;;22.38;17.30;;;;;;;13.95;51.89;99987.66;5001263;27;115159;-59
2020/12/09 07:27:25;;;;;;;20.45;16.30;;;;;;;13.94;52.08;99986.84;5001739;27;128061;-59
2020/12/09 07:29:54;;;;;;;21.33;16.48;;;;;;;13.95;51.92;99991.19;5005025;27;99068;-58
2020/12/09 07:32:21;;;;;;;21.98;16.38;;;;;;;13.96;51.81;99983.84;5019038;27;98188;-59
2020/12/09 07:34:57;;;;;;;21.25;16.13;;;;;;;13.95;52.13;99990.34;5022509;27;97946;-59
2020/12/09 07:37:26;;;;;;;21.92;15.82;;;;;;;13.98;51.74;99987.84;5022909;27;107121;-59
2020/12/09 07:39:53;;;;;;;21.63;16.23;;;;;;;13.99;51.75;99985.97;5022461;27;98865;-57
2020/12/09 07:42:22;;;;;;;24.25;16.90;;;;;;;13.96;52.07;99984.66;5011412;27;98003;-60
2020/12/09 07:44:50;;;;;;;22.70;17.10;;;;;;;14.00;52.23;99991.09;5013730;27;97900;-59
2020/12/09 07:47:29;;;;;;;21.35;15.38;;;;;;;13.98;51.98;99997.91;5021801;27;98736;-59
2020/12/09 07:50:03;;;;;;;23.00;16.95;;;;;;;14.01;52.07;99997.28;5021965;27;98375;-58
2020/12/09 07:52:30;;;;;;;21.38;16.88;;;;;;;14.00;52.32;100010.06;5021485;27;98235;-58
2020/12/09 07:54:59;;;;;;;21.05;15.82;;;;;;;14.01;52.36;100010.84;5021243;27;98070;-60
2020/12/09 07:57:33;;;;;;;22.70;16.40;;;;;;;13.98;52.94;100020.38;5019631;27;98740;-59
2020/12/09 07:59:59;;;;;;;21.08;16.55;;;;;;;14.01;52.92;100018.97;5021010;27;98399;-59
2020/12/09 08:02:27;;;;;;;23.90;16.73;;;;;;;14.02;52.84;100022.50;5021672;27;98267;-57
2020/12/09 08:05:27;;;;;;;23.17;16.20;;;;;;;13.94;53.08;100022.06;5022204;27;98055;-59
2020/12/09 08:08:01;;;;;;;20.95;16.10;;;;;;;13.95;53.25;100018.28;4966868;27;99174;-58
2020/12/09 08:10:36;;;;;;;21.67;17.02;;;;;;;13.95;53.36;100012.88;5001770;27;98455;-59
2020/12/09 08:13:13;;;;;;;20.90;16.70;;;;;;;13.99;53.70;100013.88;5010106;27;98267;-58
2020/12/09 08:15:44;;;;;;;21.98;17.00;;;;;;;14.04;53.66;100026.50;5016758;27;98036;-59
2020/12/09 08:18:21;;;;;;;21.50;16.27;;;;;;;14.05;53.82;100028.13;5021499;27;99145;-59
2020/12/09 08:20:51;;;;;;;23.20;16.17;;;;;;;14.11;53.80;100024.22;5017156;27;97820;-60
2020/12/09 08:23:17;;;;;;;22.67;17.10;;;;;;;14.16;53.63;100031.44;5013237;27;98481;-60
2020/12/09 08:25:52;;;;;;;20.30;15.82;;;;;;;14.16;53.83;100024.09;5001097;27;118741;-60
2020/12/09 08:28:25;;;;;;;22.00;16.35;;;;;;;14.14;53.92;100026.28;5003524;27;98302;-58
2020/12/09 08:30:52;;;;;;;24.88;18.20;;;;;;;14.17;53.98;100035.75;4998876;27;118219;-58
2020/12/09 08:33:29;;;;;;;30.13;23.17;;;;;;;14.18;54.20;100034.63;4984846;27;98324;-60
2020/12/09 08:36:00;;;;;;;29.98;25.10;;;;;;;14.19;54.61;100038.97;4990420;27;98162;-60
2020/12/09 08:38:49;;;;;;;33.30;27.33;;;;;;;14.20;54.59;100037.84;5004600;27;98884;-59
2020/12/09 08:41:25;;;;;;;31.58;28.10;;;;;;;14.22;54.52;100044.56;5001105;27;98680;-58
2020/12/09 08:43:57;;;;;;;38.45;32.35;;;;;;;14.24;54.64;100041.56;5003599;27;97974;-58
2020/12/09 08:46:24;;;;;;;;;;;;;;;14.16;55.13;100037.66;4984225;27;97810;-57
2020/12/09 08:48:50;;;;;;;34.60;30.17;;;;;;;14.22;55.27;100049.19;5015498;27;98859;-60
2020/12/09 08:51:21;;;;;;;34.30;30.58;;;;;;;14.23;54.96;100048.91;5020929;27;117053;-59
2020/12/09 08:53:47;;;;;;;33.40;29.55;;;;;;;14.25;54.86;100049.38;5019620;27;112465;-59
2020/12/09 08:56:13;;;;;;;33.25;28.83;;;;;;;14.28;55.09;100058.03;5022025;27;101925;-58
2020/12/09 08:58:39;;;;;;;34.33;28.13;;;;;;;14.27;55.23;100046.41;5020282;27;111929;-58
2020/12/09 09:01:05;;;;;;;31.65;27.20;;;;;;;14.35;54.84;100056.53;5019841;27;127281;-58
2020/12/09 09:03:37;;;;;;;29.60;26.27;;;;;;;14.38;54.89;100066.78;5021250;27;103016;-58
2020/12/09 09:06:03;;;;;;;46.37;41.23;;;;;;;14.42;54.93;100058.81;5005140;27;98015;-58
2020/12/09 09:08:29;;;;;;;54.10;48.38;;;;;;;14.49;54.84;100067.38;5007711;27;117173;-59
2020/12/09 09:10:55;;;;;;;63.88;57.22;;;;;;;14.52;54.64;100065.97;5020130;27;128415;-59
2020/12/09 09:13:21;;;;;;;58.80;52.70;;;;;;;14.58;55.06;100062.03;5020477;27;126394;-59
2020/12/09 09:15:47;;;;;;;61.83;55.47;;;;;;;14.58;54.68;100064.75;5003476;27;97890;-60
2020/12/09 09:18:13;;;;;;;62.95;56.42;;;;;;;14.65;54.80;100067.88;5014453;27;127984;-60
2020/12/09 09:20:39;;;;;;;58.33;52.22;;;;;;;14.69;54.50;100074.28;4952641;27;98540;-60
2020/12/09 09:23:06;;;;;;;57.38;51.53;;;;;;;14.70;54.64;100063.16;5019437;27;126933;-58
2020/12/09 09:25:33;;;;;;;55.10;49.47;;;;;;;14.70;54.99;100063.16;4986047;27;97798;-59
2020/12/09 09:27:59;;;;;;;50.90;45.55;;;;;;;14.70;55.52;100065.88;5002018;27;99969;-58
2020/12/09 09:30:26;;;;;;;48.85;43.65;;;;;;;14.71;55.38;100066.66;4982953;27;121879;-58
2020/12/09 09:32:52;;;;;;;45.00;40.30;;;;;;;14.72;55.35;100063.63;4977447;27;98353;-59
2020/12/09 09:35:19;;;;;;;43.53;38.97;;;;;;;14.77;55.24;100061.91;5000644;27;97868;-58
2020/12/09 09:37:45;;;;;;;41.47;37.28;;;;;;;14.80;55.69;100064.03;5007066;27;128525;-60
2020/12/09 09:40:11;;;;;;;38.70;34.78;;;;;;;14.80;55.52;100064.03;5019328;27;100229;-58
2020/12/09 09:42:38;;;;;;;38.33;33.95;;;;;;;14.80;55.51;100067.53;4987065;27;98224;-59
2020/12/09 09:45:06;;;;;;;35.50;31.80;;;;;;;14.80;55.32;100061.31;4999507;27;104050;-59
2020/12/09 09:47:32;;;;;;;34.50;30.77;;;;;;;14.78;56.15;100074.41;5000200;27;98446;-59
2020/12/09 09:49:58;;;;;;;79.07;62.67;;;;;;;14.82;55.57;100076.19;5000747;27;99317;-61
2020/12/09 09:52:24;;;;;;;76.25;61.05;;;;;;;14.84;55.54;100073.97;5002643;27;126124;-58
2020/12/09 09:54:50;;;;;;;76.05;63.25;;;;;;;14.81;55.79;100069.13;5010943;27;116751;-60
2020/12/09 09:57:16;;;;;;;69.10;60.28;;;;;;;14.82;55.89;100070.75;4983357;27;126890;-58
2020/12/09 09:59:42;;;;;;;74.68;61.60;;;;;;;14.82;56.33;100070.75;4999597;27;98458;-58
2020/12/09 10:02:08;;;;;;;71.88;62.50;;;;;;;14.84;56.22;100067.72;4983716;27;121952;-58
2020/12/09 10:04:34;;;;;;;69.80;60.13;;;;;;;14.87;55.81;100059.78;5000550;27;98000;-57
2020/12/09 10:07:02;;;;;;;65.68;58.65;;;;;;;14.91;56.00;100057.28;5018822;27;126982;-58
2020/12/09 10:09:28;;;;;;;64.18;57.17;;;;;;;14.90;55.69;100063.81;5019479;27;98306;-59
2020/12/09 10:11:54;;;;;;;60.88;52.83;;;;;;;14.91;55.79;100058.06;5002579;27;98061;-58
2020/12/09 10:14:20;;;;;;;56.65;49.67;;;;;;;14.91;55.92;100063.50;5023207;27;98797;-58
2020/12/09 10:16:47;;;;;;;53.53;47.70;;;;;;;14.92;55.76;100073.25;5022363;27;129022;-58
2020/12/09 10:19:13;;;;;;;49.83;44.35;;;;;;;14.95;55.71;100060.97;5023297;27;98766;-60
2020/12/09 10:21:39;;;;;;;47.22;42.08;;;;;;;15.01;56.13;100054.31;5023198;27;98291;-58
2020/12/09 10:24:06;;;;;;;52.00;46.33;;;;;;;15.03;56.11;100059.44;5004573;27;97973;-58
2020/12/09 10:26:35;;;;;;;76.20;62.50;;;;;;;15.06;55.66;100054.22;5024201;27;98128;-59
2020/12/09 10:29:07;;;;;;;103.88;91.15;;;;;;;15.09;56.02;100063.63;5003346;27;99102;-57
2020/12/09 10:31:41;;;;;;;99.63;88.73;;;;;;;15.14;55.61;100066.25;5023074;27;97830;-59
2020/12/09 10:34:09;;;;;;;101.45;90.63;;;;;;;15.18;55.77;100053.66;5023185;27;98247;-59
2020/12/09 10:36:36;;;;;;;99.53;89.00;;;;;;;15.18;55.80;100051.75;5022441;27;98578;-58
2020/12/09 10:39:04;;;;;;;88.93;79.38;;;;;;;15.25;55.87;100058.66;5023360;27;98246;-59
2020/12/09 10:41:30;;;;;;;82.15;73.38;;;;;;;15.26;56.23;100060.28;5023690;27;97946;-59
2020/12/09 10:43:56;;;;;;;74.78;66.72;;;;;;;15.21;56.24;100070.16;4992306;27;112199;-59
2020/12/09 10:46:28;;;;;;;72.43;64.40;;;;;;;15.21;56.24;100070.16;4967590;27;98709;-57
2020/12/09 10:48:54;;;;;;;65.65;58.65;;;;;;;15.21;56.40;100072.88;5014487;27;99672;-59
2020/12/09 10:51:20;;;;;;;61.45;54.47;;;;;;;15.17;56.59;100069.16;5021775;27;128019;-60
2020/12/09 10:53:46;;;;;;;57.05;51.05;;;;;;;15.14;56.56;100075.19;5013516;27;116152;-59
2020/12/09 10:56:12;;;;;;;53.90;48.10;;;;;;;15.14;57.13;100069.75;5001632;27;127611;-58
2020/12/09 10:58:38;;;;;;;57.60;50.08;;;;;;;15.17;56.91;100068.34;4993715;27;127844;-59
2020/12/09 11:01:05;;;;;;;57.35;51.35;;;;;;;15.18;56.97;100064.53;5001290;27;126755;-58
2020/12/09 11:03:31;;;;;;;60.35;53.97;;;;;;;15.16;57.05;100062.09;4997151;27;119093;-61
2020/12/09 11:05:57;;;;;;;57.42;51.53;;;;;;;15.15;56.84;100063.22;5021285;27;128506;-58
2020/12/09 11:08:23;;;;;;;57.80;51.80;;;;;;;15.16;56.87;100059.38;5016109;27;98458;-59
2020/12/09 11:10:49;;;;;;;57.72;51.45;;;;;;;15.18;56.82;100064.53;4980284;27;128463;-59
2020/12/09 11:13:15;;;;;;;54.30;48.75;;;;;;;15.16;56.43;100062.09;5002847;27;97913;-60
2020/12/09 11:15:41;;;;;;;52.83;47.33;;;;;;;15.17;56.59;100071.88;4991185;27;114235;-58
2020/12/09 11:18:07;;;;;;;47.88;42.95;;;;;;;15.14;56.88;100068.97;4988378;27;98741;-59